MMPS

Details ICAO MMPS (PXM)
Name PUERTO ESCONDIDO INTL
Region Mexico
Timezone America/Mexico_City (UTC-5.0)
Plans Departing 4
Arriving 16
Stats Elevation 294 ft / 90 m (AMSL)
Location 15.876862° -97.089117°
Runways 1
Magnetic Variation 3.974° E
Sunrise 2018-05-22 11:58:26 UTC / 2018-05-22 06:58:26 Local
Sunset 2018-05-23 00:54:31 UTC / 2018-05-22 19:54:31 Local
Advertisement - Login to hide

Runways

ID Width Length Bearing (true) Bearing (mag) Surface Threshold Offset Overrun Length
09 148 ft / 45 m 7,600 ft / 2,316 m 92.72° 88.75° Asphalt 0 ft / 0 m 200 ft / 61 m
27 148 ft / 45 m 7,600 ft / 2,316 m 272.72° 268.75° Asphalt 0 ft / 0 m 200 ft / 61 m

Map

Weather


0- 5 10 15 20 25 30 35+ Temperature / ° C

Clouds and Precipitation
Forecast for 2018-05-22 18:00 UTC. Updated 5 hours ago

Ground ~20,000 ft ~40,000 ft Winds

METAR

MMPS 222045Z 18008KT 8SM SKC 32/24 A2986 RMK TCU N HZY

TAF

Not found

Frequencies

Tower 118.90 MHz ESCONDIDO TWR
Warning: Do not use this data for real-world aviation or navigation. No guarantee of current accuracy is given.